SBUL/UDI METAR and TAF weather

Enter ICAO airport designator
Station Type Date Time Source
SBUL METAR 2022/01/26 15:00 UTC NOAA

SBUL 261500Z 03010KT 9999 FEW020 FEW030TCU SCT100 25/19 Q1018


Station Type Date Time Source
SBUL Decoded METAR 2022/01/26 15:00 UTC NOAA

Uberlandia , Brazil (SBUL) 18-53S 048-14W
Jan 26, 2022 - 10:00 AM EST / 2022.01.26 1500 UTC
Wind: from the NNE (030 degrees) at 12 MPH (10 KT):0
Visibility: greater than 7 mile(s):0
Sky conditions: partly cloudy
Weather: Towering cumulus clouds observed
Temperature: 77 F (25 C)
Dew Point: 66 F (19 C)
Relative Humidity: 69%
Pressure (altimeter): 30.06 in. Hg (1018 hPa)
ob: SBUL 261500Z 03010KT 9999 FEW020 FEW030TCU SCT100 25/19 Q1018
cycle: 15

Station Type Date Time Source
SBUL TAF 2022/01/26 12:27 UTC NOAA

TAF SBUL 261000Z 2612/2624 07005KT 9000 NSC TX28/2618Z TN23/2624Z
BECMG 2612/2614 02007KT SCT035
TEMPO 2618/2621 36008KT 7000 VCTS FEW045CB
RMK PHG

Example: see airport list